Terminal Aerodrome Forecast
Issued by NWS

Home | Current Version | Previous Version | Text Only | Print | Product List | Glossary On
Versions: 1 2 3 4 5 6 7 8 9 10 11 12 13 14 15 16 17 18 19 20 21 22 23 24 25 26 27
000
FTUS41 KBOX 301415 AAA
TAFACK
TAF AMD
KACK 301415Z 3014/0112 07018G25KT P6SM VCSH SCT035 BKN100
     FM301700 07023G30KT P6SM -SHRA OVC010
     FM301900 07023G31KT P6SM VCSH OVC008
     FM302300 08022G31KT 5SM -SHRA BR OVC008
     FM010400 08021G29KT 3SM -SHRA BR OVC003=

USA.gov is the U.S. government's official web portal to all federal, state and local government web resources and services.